Time;durP1;ratioP1;P1;durP2;ratioP2;P2;SDS_P1;SDS_P2;PMS_P1;PMS_P2;Temp;Humidity;BMP_temperature;BMP_pressure;BME280_temperature;BME280_humidity;BME280_pressure;Samples;Min_cycle;Max_cycle;Signal;HPM_P1;HPM_P2
2022/10/21 00:00:06;;;;;;;33.97;22.17;;;14.10;45.30;;;;;;4986144;28;20464;-63
2022/10/21 00:02:32;;;;;;;34.93;24.00;;;14.00;45.80;;;;;;4980857;28;20490;-63
2022/10/21 00:04:59;;;;;;;39.13;22.43;;;14.00;45.10;;;;;;4979215;28;20489;-63
2022/10/21 00:07:26;;;;;;;33.00;20.90;;;14.00;45.20;;;;;;4981170;28;20471;-63
2022/10/21 00:09:53;;;;;;;33.83;24.77;;;14.00;45.20;;;;;;4985684;28;21028;-63
2022/10/21 00:12:20;;;;;;;34.30;21.53;;;14.00;45.20;;;;;;4980803;28;20646;-63
2022/10/21 00:14:47;;;;;;;32.40;21.77;;;14.00;45.20;;;;;;4976165;28;20536;-63
2022/10/21 00:17:15;;;;;;;39.03;23.47;;;14.10;45.20;;;;;;4958359;28;20744;-63
2022/10/21 00:19:42;;;;;;;38.30;24.13;;;14.10;45.10;;;;;;4982200;28;20535;-63
2022/10/21 00:22:09;;;;;;;35.57;24.20;;;14.10;45.10;;;;;;4986431;28;20529;-63
2022/10/21 00:24:36;;;;;;;41.40;22.77;;;14.10;45.00;;;;;;4987918;28;20530;-63
2022/10/21 00:27:03;;;;;;;35.57;23.87;;;14.10;45.00;;;;;;4972613;28;20471;-63
2022/10/21 00:29:30;;;;;;;38.80;23.40;;;14.10;45.20;;;;;;4985048;28;20466;-63
2022/10/21 00:31:57;;;;;;;43.33;23.90;;;14.10;45.00;;;;;;4980972;28;20472;-61
2022/10/21 00:34:25;;;;;;;43.77;25.20;;;14.10;45.00;;;;;;4985850;28;20775;-62
2022/10/21 00:36:52;;;;;;;35.40;24.33;;;14.10;45.00;;;;;;4982952;28;20929;-64
2022/10/21 00:39:19;;;;;;;42.27;25.53;;;14.10;45.10;;;;;;4979802;28;20456;-61
2022/10/21 00:41:46;;;;;;;38.50;24.40;;;14.10;45.10;;;;;;4991478;28;20547;-62
2022/10/21 00:44:14;;;;;;;41.17;24.77;;;14.10;44.90;;;;;;4985707;28;20492;-61
2022/10/21 00:46:45;;;;;;;35.33;23.07;;;14.00;45.00;;;;;;4986297;28;20822;-61
2022/10/21 00:49:17;;;;;;;41.03;24.50;;;14.10;45.00;;;;;;4990517;28;20544;-63
2022/10/21 00:51:49;;;;;;;40.20;27.60;;;14.00;45.10;;;;;;4985502;28;20467;-61
2022/10/21 00:54:18;;;;;;;38.70;22.93;;;14.10;45.10;;;;;;4980127;28;20486;-62
2022/10/21 00:56:47;;;;;;;32.57;21.40;;;14.00;44.80;;;;;;4975645;28;20461;-62
2022/10/21 00:59:15;;;;;;;34.77;22.37;;;14.00;44.90;;;;;;4982011;28;20461;-62
2022/10/21 01:01:42;;;;;;;37.33;24.30;;;14.00;45.00;;;;;;4993381;28;20506;-64
2022/10/21 01:04:09;;;;;;;31.73;23.73;;;14.00;45.20;;;;;;4983094;28;20489;-62
2022/10/21 01:06:36;;;;;;;34.43;24.07;;;14.00;45.20;;;;;;4985644;28;20469;-62
2022/10/21 01:09:05;;;;;;;32.60;22.47;;;13.90;45.30;;;;;;4980570;28;20500;-62
2022/10/21 01:11:39;;;;;;;35.17;24.43;;;13.90;45.30;;;;;;4984753;28;20462;-62
2022/10/21 01:14:25;;;;;;;33.40;22.13;;;13.90;45.50;;;;;;4981517;28;20484;-62
2022/10/21 01:17:00;;;;;;;36.50;21.80;;;13.90;45.30;;;;;;4979113;28;20555;-62
2022/10/21 01:19:54;;;;;;;33.70;22.70;;;13.90;45.50;;;;;;4979082;28;20486;-62
2022/10/21 01:22:36;;;;;;;33.33;21.20;;;13.90;45.60;;;;;;4979219;28;20480;-62
2022/10/21 01:25:28;;;;;;;28.97;20.43;;;13.80;45.50;;;;;;4980081;28;20685;-62
2022/10/21 01:28:02;;;;;;;36.67;21.20;;;13.90;46.00;;;;;;4998841;28;20550;-62
2022/10/21 01:30:37;;;;;;;30.43;18.23;;;13.90;45.70;;;;;;4989662;28;20464;-62
2022/10/21 01:33:31;;;;;;;31.87;21.27;;;14.00;45.20;;;;;;4998151;28;20534;-62
2022/10/21 01:36:04;;;;;;;28.90;19.47;;;13.90;45.30;;;;;;4987328;28;20479;-62
2022/10/21 01:38:38;;;;;;;34.57;20.17;;;13.90;44.80;;;;;;4990996;28;20468;-62
2022/10/21 01:41:13;;;;;;;40.47;23.40;;;13.90;45.40;;;;;;4981754;28;20461;-62
2022/10/21 01:43:50;;;;;;;39.60;24.10;;;13.90;45.20;;;;;;4990110;28;21003;-62
2022/10/21 01:46:26;;;;;;;35.87;23.07;;;13.90;45.40;;;;;;4991766;28;20484;-62
2022/10/21 01:48:58;;;;;;;35.47;25.10;;;13.90;45.50;;;;;;4989078;28;20464;-62
2022/10/21 01:51:27;;;;;;;38.47;23.43;;;13.80;45.20;;;;;;4985299;28;20474;-62
2022/10/21 01:54:00;;;;;;;41.27;25.90;;;13.80;45.50;;;;;;4984067;28;20477;-62
2022/10/21 01:56:29;;;;;;;37.93;23.57;;;13.90;45.40;;;;;;4993590;28;20468;-62
2022/10/21 01:58:56;;;;;;;45.00;26.63;;;13.80;45.30;;;;;;4978367;28;20904;-62
2022/10/21 02:01:25;;;;;;;43.37;27.20;;;13.80;45.40;;;;;;4993741;28;20480;-62
2022/10/21 02:03:54;;;;;;;40.37;25.60;;;13.90;45.40;;;;;;4987324;28;20484;-63
2022/10/21 02:06:21;;;;;;;37.73;24.33;;;13.80;45.30;;;;;;4986591;28;20981;-63
2022/10/21 02:08:48;;;;;;;39.87;25.23;;;13.90;45.40;;;;;;4979427;28;20465;-62
2022/10/21 02:11:17;;;;;;;47.10;27.07;;;13.90;45.50;;;;;;4986023;28;20459;-62
2022/10/21 02:13:48;;;;;;;46.37;26.50;;;13.80;46.10;;;;;;4987831;28;20472;-62
2022/10/21 02:16:18;;;;;;;47.93;26.30;;;13.80;45.50;;;;;;4981682;28;20831;-62
2022/10/21 02:18:46;;;;;;;41.90;25.07;;;13.80;45.60;;;;;;4987368;28;20480;-61
2022/10/21 02:21:19;;;;;;;39.63;22.50;;;13.90;45.30;;;;;;4986892;28;20472;-62
2022/10/21 02:23:55;;;;;;;40.50;23.80;;;13.90;45.30;;;;;;4983401;28;20495;-63
2022/10/21 02:26:24;;;;;;;37.30;26.90;;;13.80;45.50;;;;;;4984984;28;21057;-62
2022/10/21 02:28:52;;;;;;;37.53;24.83;;;13.80;45.40;;;;;;4994019;28;20465;-61
2022/10/21 02:31:39;;;;;;;38.77;26.20;;;13.80;45.50;;;;;;4989049;28;20468;-63
2022/10/21 02:34:17;;;;;;;38.13;22.73;;;13.80;45.70;;;;;;5000145;28;20484;-64
2022/10/21 02:36:54;;;;;;;37.80;24.93;;;13.80;45.50;;;;;;4981408;28;20463;-62
2022/10/21 02:39:26;;;;;;;46.90;27.93;;;13.80;45.50;;;;;;4978353;28;20455;-62
2022/10/21 02:41:55;;;;;;;39.23;24.40;;;13.80;45.50;;;;;;4984676;28;20461;-62
2022/10/21 02:44:22;;;;;;;89.20;27.90;;;13.70;45.50;;;;;;4982793;28;20472;-62
2022/10/21 02:46:49;;;;;;;120.53;26.23;;;13.80;45.50;;;;;;4983253;28;20464;-62
2022/10/21 02:49:17;;;;;;;59.10;24.13;;;13.80;45.40;;;;;;4985171;28;20460;-62
2022/10/21 02:51:45;;;;;;;56.60;22.60;;;13.80;45.20;;;;;;4983417;28;20549;-64
2022/10/21 02:54:12;;;;;;;93.60;23.60;;;13.80;45.40;;;;;;4983672;28;20480;-62
2022/10/21 02:56:39;;;;;;;163.50;32.10;;;13.80;45.40;;;;;;4981099;28;20464;-62
2022/10/21 02:59:05;;;;;;;45.93;23.07;;;13.70;45.50;;;;;;4996889;28;20542;-62
2022/10/21 03:01:32;;;;;;;39.27;24.43;;;13.70;45.60;;;;;;4981272;28;20846;-62
2022/10/21 03:03:59;;;;;;;42.13;23.60;;;13.70;45.60;;;;;;4978257;28;20482;-62
2022/10/21 03:06:27;;;;;;;118.77;24.83;;;13.70;45.60;;;;;;4981886;28;20836;-62
2022/10/21 03:08:54;;;;;;;83.30;24.80;;;13.70;45.70;;;;;;4995168;28;20477;-62
2022/10/21 03:11:21;;;;;;;88.57;24.70;;;13.70;46.00;;;;;;4988802;28;20471;-62
2022/10/21 03:13:48;;;;;;;115.90;27.30;;;13.70;45.80;;;;;;4991524;28;20487;-62
2022/10/21 03:16:15;;;;;;;103.70;25.73;;;13.70;46.10;;;;;;4994711;28;20995;-64
2022/10/21 03:18:42;;;;;;;99.03;24.50;;;13.70;46.20;;;;;;4980531;28;20465;-62
2022/10/21 03:21:08;;;;;;;67.87;21.90;;;13.60;46.30;;;;;;4981229;28;20465;-62
2022/10/21 03:23:37;;;;;;;66.40;22.70;;;13.60;46.60;;;;;;4982373;28;20783;-62
2022/10/21 03:26:04;;;;;;;56.37;24.00;;;13.60;46.60;;;;;;4990802;28;20476;-62
2022/10/21 03:28:30;;;;;;;59.17;23.57;;;13.60;46.80;;;;;;4977844;28;20471;-62
2022/10/21 03:30:57;;;;;;;38.03;22.10;;;13.60;46.80;;;;;;4987770;28;20936;-62
2022/10/21 03:33:24;;;;;;;36.23;22.17;;;13.60;47.10;;;;;;4979002;28;20477;-62
2022/10/21 03:35:51;;;;;;;44.17;23.87;;;13.60;47.10;;;;;;4982365;28;20789;-62
2022/10/21 03:38:18;;;;;;;35.13;23.47;;;13.60;47.30;;;;;;4978279;28;20818;-62
2022/10/21 03:40:46;;;;;;;32.93;22.10;;;13.60;47.20;;;;;;4981831;28;20501;-62
2022/10/21 03:43:13;;;;;;;45.93;24.57;;;13.60;46.90;;;;;;4970582;28;20500;-61
2022/10/21 03:45:40;;;;;;;32.83;21.57;;;13.60;47.00;;;;;;4987044;28;20495;-61
2022/10/21 03:48:06;;;;;;;32.53;21.17;;;13.70;47.20;;;;;;4987586;28;20468;-61
2022/10/21 03:50:33;;;;;;;33.17;21.90;;;13.60;47.30;;;;;;4987516;28;20457;-61
2022/10/21 03:53:00;;;;;;;48.33;23.30;;;13.60;47.40;;;;;;4994035;28;20483;-61
2022/10/21 03:55:27;;;;;;;34.00;21.40;;;13.60;47.30;;;;;;4974875;28;20722;-64
2022/10/21 03:57:55;;;;;;;34.90;21.50;;;13.60;47.10;;;;;;4995965;28;20689;-64
2022/10/21 04:00:22;;;;;;;33.17;22.80;;;13.70;47.30;;;;;;4988326;28;20479;-62
2022/10/21 04:02:49;;;;;;;37.97;23.90;;;13.70;47.30;;;;;;4987896;28;20488;-61
2022/10/21 04:05:16;;;;;;;35.23;23.20;;;13.70;47.30;;;;;;4988396;28;21138;-62
2022/10/21 04:07:43;;;;;;;33.50;22.57;;;13.70;47.00;;;;;;4987610;28;20472;-62
2022/10/21 04:10:11;;;;;;;34.80;24.03;;;13.70;47.20;;;;;;4984829;28;20553;-62
2022/10/21 04:12:38;;;;;;;34.57;23.27;;;13.70;47.50;;;;;;4992011;28;20499;-63
2022/10/21 04:15:07;;;;;;;35.00;22.17;;;13.70;47.50;;;;;;5005746;28;20458;-62
2022/10/21 04:17:34;;;;;;;40.47;24.20;;;13.70;47.50;;;;;;4982225;28;20468;-64
2022/10/21 04:20:01;;;;;;;34.80;22.97;;;13.70;47.30;;;;;;4977496;28;20458;-62
2022/10/21 04:22:28;;;;;;;37.27;24.03;;;13.70;47.20;;;;;;4976380;28;21029;-62
2022/10/21 04:24:54;;;;;;;34.57;23.27;;;13.70;47.00;;;;;;4984368;28;20465;-62
2022/10/21 04:27:22;;;;;;;39.97;24.00;;;13.70;46.90;;;;;;4988895;28;20466;-63
2022/10/21 04:29:48;;;;;;;34.03;23.60;;;13.80;46.80;;;;;;4970730;28;20464;-63
2022/10/21 04:32:16;;;;;;;37.37;24.43;;;13.80;46.80;;;;;;4975332;28;20480;-62
2022/10/21 04:34:44;;;;;;;47.93;23.97;;;13.80;46.80;;;;;;4974562;28;20472;-64
2022/10/21 04:37:11;;;;;;;37.57;23.33;;;13.80;46.70;;;;;;4980859;28;20528;-61
2022/10/21 04:39:38;;;;;;;32.57;22.27;;;13.80;46.70;;;;;;4990390;28;20472;-62
2022/10/21 04:42:04;;;;;;;30.00;21.10;;;13.80;47.30;;;;;;4983709;28;20469;-65
2022/10/21 04:44:31;;;;;;;55.97;22.13;;;13.80;46.60;;;;;;4972552;28;20462;-62
2022/10/21 04:46:58;;;;;;;29.30;19.90;;;13.80;46.60;;;;;;4967289;28;20512;-62
2022/10/21 04:49:26;;;;;;;31.80;21.87;;;13.90;46.80;;;;;;4983327;28;20467;-62
2022/10/21 04:51:53;;;;;;;30.87;20.43;;;13.90;46.50;;;;;;4991817;28;20467;-62
2022/10/21 04:54:20;;;;;;;32.40;20.73;;;13.90;46.50;;;;;;4972854;28;20508;-62
2022/10/21 04:56:46;;;;;;;35.40;19.97;;;13.90;46.40;;;;;;4981575;28;20461;-64
2022/10/21 04:59:13;;;;;;;26.80;19.50;;;13.90;47.00;;;;;;4974633;28;20492;-62
2022/10/21 05:01:40;;;;;;;36.37;22.23;;;13.90;46.30;;;;;;4977038;28;20497;-65
2022/10/21 05:04:07;;;;;;;29.57;20.10;;;13.90;46.40;;;;;;4976011;28;20492;-66
2022/10/21 05:06:35;;;;;;;33.00;20.07;;;13.90;46.40;;;;;;4970130;28;21065;-66
2022/10/21 05:09:02;;;;;;;31.13;20.47;;;13.90;46.40;;;;;;4970289;28;20942;-67
2022/10/21 05:14:16;;;;;;;28.83;19.60;;;13.90;46.20;;;;;;4962358;28;20559;-67
2022/10/21 05:16:43;;;;;;;28.00;20.00;;;13.90;46.20;;;;;;4976888;28;20821;-67
2022/10/21 05:19:11;;;;;;;31.33;20.60;;;13.90;46.20;;;;;;4974590;28;20492;-65
2022/10/21 05:21:39;;;;;;;29.13;20.60;;;13.90;46.20;;;;;;4975586;28;20556;-66
2022/10/21 05:24:06;;;;;;;29.70;19.20;;;13.90;46.20;;;;;;4972936;28;20488;-68
2022/10/21 05:26:33;;;;;;;27.97;18.33;;;13.90;46.10;;;;;;4973080;28;20487;-70
2022/10/21 05:29:00;;;;;;;31.77;21.03;;;13.90;46.10;;;;;;4974828;28;20457;-65
2022/10/21 05:31:27;;;;;;;30.70;20.53;;;14.00;46.10;;;;;;4981512;28;20473;-68
2022/10/21 05:33:53;;;;;;;29.10;20.60;;;14.00;46.10;;;;;;4972210;28;20477;-68
2022/10/21 05:36:20;;;;;;;27.10;19.43;;;14.00;45.90;;;;;;4985133;28;20457;-68
2022/10/21 05:38:48;;;;;;;27.30;19.57;;;14.00;45.90;;;;;;4988117;28;20478;-70
2022/10/21 05:41:15;;;;;;;33.67;23.27;;;14.00;46.10;;;;;;4987153;28;20464;-70
2022/10/21 05:43:42;;;;;;;36.27;22.47;;;14.00;46.00;;;;;;4981241;28;20994;-69
2022/10/21 05:46:09;;;;;;;31.30;20.77;;;14.00;46.00;;;;;;4982520;28;22439;-68
2022/10/21 05:48:36;;;;;;;30.33;22.17;;;13.90;46.00;;;;;;4980058;28;20477;-65
2022/10/21 05:51:04;;;;;;;33.67;22.37;;;14.00;46.00;;;;;;4977119;28;20460;-65
2022/10/21 05:53:31;;;;;;;31.90;21.80;;;13.90;46.00;;;;;;4974235;28;21424;-65
2022/10/21 05:56:01;;;;;;;29.13;20.80;;;13.90;46.00;;;;;;4998068;23;20491;-66
2022/10/21 05:58:29;;;;;;;28.60;20.03;;;14.00;45.90;;;;;;5016938;28;20482;-65
2022/10/21 06:00:57;;;;;;;40.43;20.97;;;14.00;45.90;;;;;;5017714;28;20904;-65
2022/10/21 06:03:28;;;;;;;30.67;21.00;;;14.00;46.00;;;;;;5010113;28;20861;-67
2022/10/21 06:05:56;;;;;;;30.90;19.63;;;14.00;45.90;;;;;;5013763;28;20491;-67
2022/10/21 06:08:23;;;;;;;29.23;21.63;;;14.00;45.90;;;;;;5018066;28;20459;-67
2022/10/21 06:10:50;;;;;;;27.13;19.40;;;14.00;45.80;;;;;;5019403;28;20468;-66
2022/10/21 06:13:18;;;;;;;31.80;20.20;;;14.00;45.80;;;;;;5019123;28;20869;-67
2022/10/21 06:15:45;;;;;;;29.00;21.67;;;14.00;45.70;;;;;;5018817;28;20483;-74
2022/10/21 06:18:11;;;;;;;29.23;20.60;;;14.00;45.50;;;;;;5015018;28;20456;-72
2022/10/21 06:20:38;;;;;;;52.20;22.07;;;14.00;45.60;;;;;;5019214;28;20464;-70
2022/10/21 06:23:05;;;;;;;38.10;20.43;;;14.00;45.60;;;;;;5019862;28;20466;-73
2022/10/21 06:25:31;;;;;;;33.30;20.10;;;14.00;45.60;;;;;;5017943;28;20470;-71
2022/10/21 06:27:58;;;;;;;34.30;19.97;;;14.00;45.60;;;;;;5016268;28;20479;-73
2022/10/21 06:30:26;;;;;;;41.80;22.33;;;14.00;45.60;;;;;;5019029;28;20472;-73
2022/10/21 06:32:53;;;;;;;30.20;19.57;;;14.00;45.60;;;;;;5023167;28;20462;-73
2022/10/21 06:35:20;;;;;;;34.03;19.83;;;14.00;45.60;;;;;;5021112;28;20469;-71
2022/10/21 06:37:47;;;;;;;26.10;19.67;;;14.00;45.50;;;;;;5025232;28;20832;-73
2022/10/21 06:40:13;;;;;;;22.17;18.90;;;14.00;45.40;;;;;;5020455;28;20848;-70
2022/10/21 06:42:40;;;;;;;29.93;20.40;;;14.10;45.40;;;;;;5022474;28;20462;-67
2022/10/21 06:45:08;;;;;;;26.73;19.80;;;14.10;45.30;;;;;;5017549;28;20838;-70
2022/10/21 06:47:36;;;;;;;33.37;19.20;;;14.10;45.30;;;;;;5025870;28;20487;-72
2022/10/21 06:50:03;;;;;;;31.00;21.30;;;14.20;45.20;;;;;;5017521;28;20455;-71
2022/10/21 06:52:30;;;;;;;27.80;19.67;;;14.20;45.20;;;;;;5026555;28;20459;-71
2022/10/21 06:54:57;;;;;;;24.73;18.93;;;14.20;44.90;;;;;;5015814;28;20463;-69
2022/10/21 06:57:24;;;;;;;24.80;19.67;;;14.30;45.00;;;;;;5019029;28;20565;-70
2022/10/21 06:59:51;;;;;;;27.00;21.97;;;14.30;45.00;;;;;;5018187;28;21008;-69
2022/10/21 07:02:17;;;;;;;29.50;20.57;;;14.20;44.80;;;;;;5019900;28;20479;-71
2022/10/21 07:04:48;;;;;;;26.03;20.50;;;14.30;44.80;;;;;;5018997;28;20456;-68
2022/10/21 07:07:15;;;;;;;30.60;20.50;;;14.20;44.80;;;;;;5015603;28;20518;-68
2022/10/21 07:09:41;;;;;;;25.83;18.83;;;14.20;44.80;;;;;;5016113;28;20463;-66
2022/10/21 07:12:08;;;;;;;25.90;19.80;;;14.20;44.80;;;;;;5015516;28;20467;-66
2022/10/21 07:14:35;;;;;;;29.07;19.20;;;14.20;44.80;;;;;;5021970;28;20455;-66
2022/10/21 07:17:02;;;;;;;30.40;20.70;;;14.30;44.90;;;;;;5024391;28;20475;-66
2022/10/21 07:19:28;;;;;;;25.33;18.60;;;14.30;44.80;;;;;;5018707;28;20459;-66
2022/10/21 07:21:56;;;;;;;24.83;18.83;;;14.30;44.80;;;;;;5016340;28;20464;-65
2022/10/21 07:24:23;;;;;;;26.80;20.50;;;14.30;44.90;;;;;;5021243;28;20463;-66
2022/10/21 07:26:50;;;;;;;25.70;20.13;;;14.30;44.70;;;;;;5019517;28;20487;-68
2022/10/21 07:29:17;;;;;;;26.77;19.20;;;14.30;44.70;;;;;;5019432;28;20839;-68
2022/10/21 07:31:44;;;;;;;27.83;20.80;;;14.40;44.60;;;;;;5016546;28;20967;-68
2022/10/21 07:34:12;;;;;;;29.40;22.30;;;14.40;44.70;;;;;;5015692;28;20459;-68
2022/10/21 07:36:41;;;;;;;32.63;23.07;;;14.40;44.70;;;;;;5013654;28;20510;-68
2022/10/21 07:39:12;;;;;;;31.83;20.77;;;14.40;44.60;;;;;;5025162;28;20842;-67
2022/10/21 07:41:41;;;;;;;30.20;18.63;;;14.40;44.40;;;;;;5027731;28;20474;-68
2022/10/21 07:44:09;;;;;;;24.53;18.27;;;14.40;44.50;;;;;;5015093;28;20460;-69
2022/10/21 07:46:37;;;;;;;27.87;18.83;;;14.40;44.20;;;;;;5015299;28;20482;-69
2022/10/21 07:49:04;;;;;;;22.13;18.17;;;14.40;44.00;;;;;;5014706;28;20553;-67
2022/10/21 07:51:31;;;;;;;26.63;17.77;;;14.40;44.10;;;;;;5014534;28;20490;-69
2022/10/21 07:53:59;;;;;;;21.13;16.10;;;14.50;44.00;;;;;;5020671;28;20486;-68
2022/10/21 07:56:30;;;;;;;29.00;20.47;;;14.50;44.00;;;;;;5013262;28;20502;-70
2022/10/21 07:58:57;;;;;;;23.50;18.10;;;14.50;44.00;;;;;;5016482;28;20452;-68
2022/10/21 08:01:24;;;;;;;31.60;20.17;;;14.50;44.00;;;;;;5019925;28;20474;-64
2022/10/21 08:03:53;;;;;;;31.40;21.70;;;14.50;44.50;;;;;;5020804;28;20478;-67
2022/10/21 08:06:20;;;;;;;36.83;25.20;;;14.50;44.90;;;;;;5015804;28;20475;-68
2022/10/21 08:08:46;;;;;;;30.90;24.60;;;14.50;44.80;;;;;;5017803;28;20459;-68
2022/10/21 08:11:21;;;;;;;34.37;25.50;;;14.50;45.10;;;;;;5016806;28;20498;-65
2022/10/21 08:13:49;;;;;;;29.03;21.90;;;14.60;45.10;;;;;;5020042;28;20458;-70
2022/10/21 08:16:16;;;;;;;34.53;23.80;;;14.70;45.00;;;;;;5015243;28;20991;-70
2022/10/21 08:18:43;;;;;;;32.80;24.60;;;14.70;44.70;;;;;;5019770;28;20968;-66
2022/10/21 08:21:10;;;;;;;34.17;24.20;;;14.70;45.00;;;;;;5021103;28;20913;-62
2022/10/21 08:23:36;;;;;;;31.53;24.10;;;14.70;44.90;;;;;;5015651;28;20463;-68
2022/10/21 08:26:03;;;;;;;34.03;24.47;;;14.70;45.10;;;;;;5017332;28;20491;-64
2022/10/21 08:28:31;;;;;;;36.83;26.27;;;14.70;45.50;;;;;;5020472;28;20483;-67
2022/10/21 08:31:05;;;;;;;42.47;31.37;;;14.70;45.60;;;;;;5012759;28;20485;-70
2022/10/21 08:33:32;;;;;;;50.37;32.37;;;14.70;45.80;;;;;;5020116;28;21856;-70
2022/10/21 08:35:58;;;;;;;63.27;40.73;;;14.70;45.80;;;;;;5016256;28;20518;-68
2022/10/21 08:38:25;;;;;;;61.53;40.43;;;14.70;45.80;;;;;;5013762;28;20460;-69
2022/10/21 08:40:52;;;;;;;65.50;39.30;;;14.70;46.00;;;;;;5013396;28;20460;-70
2022/10/21 08:43:23;;;;;;;63.37;40.20;;;14.70;46.30;;;;;;5020802;28;20471;-65
2022/10/21 08:45:54;;;;;;;57.60;37.13;;;14.70;46.40;;;;;;5017291;28;20478;-68
2022/10/21 08:48:30;;;;;;;57.73;37.13;;;14.80;46.20;;;;;;5017704;28;20583;-70
2022/10/21 08:50:58;;;;;;;54.37;34.77;;;14.90;46.30;;;;;;5018371;28;21072;-64
2022/10/21 08:53:30;;;;;;;55.70;35.40;;;14.90;45.90;;;;;;5021394;28;20463;-69
2022/10/21 08:56:02;;;;;;;67.40;34.60;;;15.00;45.50;;;;;;5018056;28;20925;-67
2022/10/21 08:58:28;;;;;;;50.63;32.70;;;15.10;45.50;;;;;;5015845;28;20455;-66
2022/10/21 09:01:01;;;;;;;44.70;30.87;;;15.10;45.80;;;;;;5018201;28;20491;-70
2022/10/21 09:03:37;;;;;;;47.67;30.67;;;15.20;45.90;;;;;;5017065;28;20460;-66
2022/10/21 09:06:17;;;;;;;49.33;30.10;;;15.30;45.70;;;;;;5016456;28;20491;-67
2022/10/21 09:08:55;;;;;;;47.50;31.27;;;15.30;45.90;;;;;;5016900;28;20487;-67
2022/10/21 09:11:30;;;;;;;51.27;33.20;;;15.30;46.00;;;;;;5019005;28;20463;-66
2022/10/21 09:14:15;;;;;;;50.30;34.47;;;15.30;46.10;;;;;;5014173;28;20463;-67
2022/10/21 09:16:51;;;;;;;54.83;36.03;;;15.30;46.30;;;;;;5014749;28;20854;-69
2022/10/21 09:19:33;;;;;;;54.90;35.53;;;15.40;46.30;;;;;;5018823;28;21951;-72
2022/10/21 09:22:14;;;;;;;59.93;38.07;;;15.40;46.40;;;;;;5013714;28;20475;-70
2022/10/21 09:24:48;;;;;;;48.03;33.33;;;15.50;46.40;;;;;;5008506;28;20467;-65
2022/10/21 09:27:16;;;;;;;44.70;30.10;;;15.50;46.60;;;;;;5016372;28;20493;-66
2022/10/21 09:29:44;;;;;;;53.00;33.93;;;15.50;46.50;;;;;;5017416;28;20467;-65
2022/10/21 09:32:16;;;;;;;44.87;32.27;;;15.60;47.10;;;;;;5012700;28;21022;-68
2022/10/21 09:34:49;;;;;;;52.30;31.97;;;15.60;46.80;;;;;;5011529;28;20468;-66
2022/10/21 09:37:23;;;;;;;44.40;30.13;;;15.70;46.10;;;;;;5013778;28;20466;-62
2022/10/21 09:39:55;;;;;;;47.83;31.37;;;15.80;46.10;;;;;;5012212;28;21074;-63
2022/10/21 09:42:22;;;;;;;47.47;31.73;;;15.80;45.80;;;;;;5017038;28;20462;-67
2022/10/21 09:44:49;;;;;;;45.03;30.47;;;15.80;45.90;;;;;;5015349;28;20561;-67
2022/10/21 09:47:22;;;;;;;50.03;31.00;;;15.80;45.90;;;;;;5022181;28;20490;-64
2022/10/21 09:49:54;;;;;;;43.80;30.80;;;15.80;46.10;;;;;;5018644;28;20462;-68
2022/10/21 09:52:23;;;;;;;51.03;31.17;;;15.90;45.90;;;;;;5023857;28;20458;-65
2022/10/21 09:54:50;;;;;;;40.63;28.20;;;15.90;46.10;;;;;;5020176;28;20451;-66
2022/10/21 09:57:23;;;;;;;40.70;30.20;;;16.00;45.90;;;;;;5024364;28;20478;-67
2022/10/21 09:59:51;;;;;;;45.73;31.50;;;16.00;45.60;;;;;;5018361;28;23278;-65
2022/10/21 10:02:26;;;;;;;47.07;27.87;;;16.10;45.30;;;;;;5014275;28;20474;-67
2022/10/21 10:04:56;;;;;;;37.53;27.63;;;16.20;45.40;;;;;;5013435;28;21213;-67
2022/10/21 10:07:32;;;;;;;37.97;26.10;;;16.30;45.40;;;;;;5013690;28;20485;-66
2022/10/21 10:09:59;;;;;;;20.33;13.00;;;16.30;45.80;;;;;;5018420;28;20466;-66
2022/10/21 10:12:37;;;;;;;25.97;15.87;;;16.30;42.50;;;;;;5015357;28;20494;-66
2022/10/21 10:15:24;;;;;;;23.53;15.37;;;16.40;43.70;;;;;;5019360;28;20465;-66
2022/10/21 10:17:56;;;;;;;17.57;11.77;;;16.30;44.10;;;;;;5018106;28;20940;-66
2022/10/21 10:20:24;;;;;;;18.77;11.40;;;16.30;43.70;;;;;;5013390;28;20464;-66
2022/10/21 10:23:18;;;;;;;19.40;12.70;;;16.30;43.70;;;;;;5021266;28;20459;-65
2022/10/21 10:25:51;;;;;;;20.37;13.93;;;16.30;44.40;;;;;;5012370;28;20484;-67
2022/10/21 10:28:23;;;;;;;20.03;14.73;;;16.30;44.60;;;;;;5017887;28;20587;-66
2022/10/21 10:30:53;;;;;;;20.70;14.97;;;16.40;44.40;;;;;;5019667;28;20487;-68
2022/10/21 10:33:22;;;;;;;19.43;14.50;;;16.50;43.90;;;;;;5019935;28;20464;-66
2022/10/21 10:35:53;;;;;;;25.37;14.00;;;16.60;43.50;;;;;;5016004;28;20478;-66
2022/10/21 10:38:23;;;;;;;22.97;14.67;;;16.60;43.40;;;;;;5016964;28;21185;-67
2022/10/21 10:40:51;;;;;;;20.20;14.30;;;16.60;43.10;;;;;;5015505;28;20482;-65
2022/10/21 10:43:24;;;;;;;21.07;14.33;;;16.70;43.00;;;;;;5014109;28;21070;-65
2022/10/21 10:45:55;;;;;;;24.70;14.53;;;16.70;43.40;;;;;;5016075;28;20497;-66
2022/10/21 10:48:25;;;;;;;23.70;14.67;;;16.90;43.40;;;;;;5021413;28;20471;-68
2022/10/21 10:50:53;;;;;;;22.67;13.67;;;16.90;43.40;;;;;;5020361;28;20469;-66
2022/10/21 10:53:32;;;;;;;14.73;10.60;;;17.10;43.40;;;;;;5018508;28;20461;-66
2022/10/21 10:56:13;;;;;;;17.50;11.93;;;17.20;42.70;;;;;;5020709;28;20482;-65
2022/10/21 10:58:45;;;;;;;18.03;10.43;;;17.20;42.20;;;;;;5010560;28;20464;-67
2022/10/21 11:01:18;;;;;;;15.43;9.27;;;17.20;41.90;;;;;;5018731;28;20479;-65
2022/10/21 11:03:51;;;;;;;16.03;10.43;;;17.30;41.90;;;;;;5014851;28;20475;-66
2022/10/21 11:06:33;;;;;;;12.87;8.60;;;17.30;41.90;;;;;;5014953;28;20491;-62
2022/10/21 11:09:02;;;;;;;13.73;8.70;;;17.30;41.90;;;;;;5015562;28;22978;-69
2022/10/21 11:11:34;;;;;;;12.13;7.80;;;17.40;42.00;;;;;;5010431;28;20479;-69
2022/10/21 11:14:00;;;;;;;14.87;8.23;;;17.40;41.80;;;;;;5015379;28;21079;-68
2022/10/21 11:16:42;;;;;;;11.57;7.27;;;17.40;41.60;;;;;;5015506;28;20484;-69
2022/10/21 11:19:15;;;;;;;11.30;6.40;;;17.40;41.50;;;;;;5016472;28;20459;-79
2022/10/21 11:21:51;;;;;;;11.83;5.80;;;17.40;40.70;;;;;;5020764;28;20960;-76
2022/10/21 11:24:49;;;;;;;9.10;5.23;;;17.40;40.50;;;;;;5018527;28;20465;-79
2022/10/21 11:27:25;;;;;;;12.87;5.53;;;17.40;40.70;;;;;;5017070;28;20515;-78
2022/10/21 11:30:01;;;;;;;12.00;5.13;;;17.40;40.40;;;;;;5016020;28;20465;-78
2022/10/21 11:32:37;;;;;;;9.20;4.27;;;17.40;40.10;;;;;;5011071;28;20502;-70
2022/10/21 11:35:16;;;;;;;8.23;4.23;;;17.40;40.10;;;;;;5016296;28;20454;-73
2022/10/21 11:37:57;;;;;;;12.00;5.87;;;17.30;40.10;;;;;;5018831;28;20482;-74
2022/10/21 11:40:33;;;;;;;10.93;5.37;;;17.30;40.00;;;;;;5012898;28;20459;-72
2022/10/21 11:43:12;;;;;;;13.63;7.23;;;17.30;39.70;;;;;;5014921;28;20512;-74
2022/10/21 11:45:53;;;;;;;7.10;2.87;;;17.30;39.60;;;;;;5017760;28;20475;-71
2022/10/21 11:48:35;;;;;;;5.67;2.53;;;17.30;38.90;;;;;;5014779;28;20501;-72
2022/10/21 11:51:13;;;;;;;7.20;2.70;;;17.30;39.10;;;;;;5016681;28;20467;-68
2022/10/21 11:53:58;;;;;;;8.97;2.80;;;17.40;39.00;;;;;;5010099;28;20497;-69
2022/10/21 11:56:32;;;;;;;5.80;2.60;;;17.40;39.30;;;;;;5007475;28;20561;-66
2022/10/21 11:59:12;;;;;;;5.97;2.33;;;17.40;39.10;;;;;;5017741;28;20455;-68
2022/10/21 12:01:47;;;;;;;5.60;2.10;;;17.30;38.90;;;;;;5015982;28;20514;-68
2022/10/21 12:04:32;;;;;;;8.73;2.60;;;17.30;38.90;;;;;;5021176;28;20839;-69
2022/10/21 12:07:19;;;;;;;6.47;2.30;;;17.30;38.80;;;;;;5018257;28;20475;-68
2022/10/21 12:09:56;;;;;;;8.50;2.30;;;17.30;38.40;;;;;;5011280;28;20486;-67
2022/10/21 12:12:29;;;;;;;5.80;2.33;;;17.30;39.00;;;;;;5013255;28;20455;-69
2022/10/21 12:15:01;;;;;;;6.50;2.30;;;17.30;38.40;;;;;;5012682;28;20463;-67
2022/10/21 12:17:32;;;;;;;6.10;1.83;;;17.40;38.30;;;;;;5014549;28;20502;-70
2022/10/21 12:20:01;;;;;;;11.33;1.60;;;17.40;38.20;;;;;;5013797;28;20546;-68
2022/10/21 12:22:31;;;;;;;8.80;2.03;;;17.50;37.90;;;;;;5011466;28;20838;-68
2022/10/21 12:25:08;;;;;;;5.60;1.70;;;17.50;37.50;;;;;;5018493;28;20522;-67
2022/10/21 12:27:43;;;;;;;5.40;2.00;;;17.60;37.40;;;;;;5016388;28;20486;-69
2022/10/21 12:30:16;;;;;;;5.43;2.03;;;17.60;37.30;;;;;;5014401;28;20463;-70
2022/10/21 12:32:49;;;;;;;4.40;1.67;;;17.70;37.30;;;;;;5017795;28;20471;-67
2022/10/21 12:35:23;;;;;;;5.70;1.60;;;17.80;37.00;;;;;;5016685;28;21026;-69
2022/10/21 12:38:20;;;;;;;5.30;1.50;;;17.80;36.60;;;;;;5016390;28;20463;-68
2022/10/21 12:40:49;;;;;;;4.83;1.60;;;17.70;36.60;;;;;;5016031;28;21330;-68
2022/10/21 12:43:21;;;;;;;6.33;1.53;;;17.70;36.70;;;;;;5015594;28;20465;-68
2022/10/21 12:46:02;;;;;;;5.30;1.60;;;17.80;36.40;;;;;;5018530;28;20502;-67